createdAt,value
2018-06-08T00:00:49.381Z,21.87
2018-06-08T00:01:49.374Z,21.89
2018-06-08T00:02:49.315Z,21.91
2018-06-08T00:03:49.326Z,21.89
2018-06-08T00:04:49.311Z,21.92
2018-06-08T00:05:49.350Z,21.93
2018-06-08T00:06:49.741Z,21.94
2018-06-08T00:07:49.322Z,21.93
2018-06-08T00:08:49.385Z,21.91
2018-06-08T00:09:49.832Z,21.93
2018-06-08T00:10:49.651Z,21.9
2018-06-08T00:11:49.299Z,21.9
2018-06-08T00:12:49.337Z,21.93
2018-06-08T00:13:49.315Z,21.89
2018-06-08T00:14:49.369Z,21.89
2018-06-08T00:15:49.404Z,21.87
2018-06-08T00:16:49.285Z,21.86
2018-06-08T00:17:49.382Z,21.85
2018-06-08T00:18:49.782Z,21.85
2018-06-08T00:19:49.335Z,21.83
2018-06-08T00:20:49.299Z,21.85
2018-06-08T00:21:49.363Z,21.83
2018-06-08T00:22:49.293Z,21.83
2018-06-08T00:23:49.345Z,21.83
2018-06-08T00:24:49.287Z,21.83
2018-06-08T00:25:49.293Z,21.84
2018-06-08T00:26:49.335Z,21.84
2018-06-08T00:27:49.291Z,21.84
2018-06-08T00:28:49.287Z,21.85
2018-06-08T00:29:49.281Z,21.82
2018-06-08T00:30:49.306Z,21.82
2018-06-08T00:31:49.348Z,21.84
2018-06-08T00:32:49.293Z,21.81
2018-06-08T00:33:49.652Z,21.8
2018-06-08T00:34:49.288Z,21.8
2018-06-08T00:35:49.284Z,21.78
2018-06-08T00:36:49.728Z,21.8
2018-06-08T00:37:49.294Z,21.78
2018-06-08T00:38:49.296Z,21.8
2018-06-08T00:39:49.290Z,21.79
2018-06-08T00:40:49.280Z,21.77
2018-06-08T00:41:49.310Z,21.77
2018-06-08T00:42:49.275Z,21.75
2018-06-08T00:43:49.293Z,21.74
2018-06-08T00:44:49.343Z,21.73
2018-06-08T00:45:49.317Z,21.69
2018-06-08T00:46:49.309Z,21.68
2018-06-08T00:47:49.429Z,21.63
2018-06-08T00:48:49.299Z,21.6
2018-06-08T00:49:50.103Z,21.59
2018-06-08T00:50:50.203Z,21.57
2018-06-08T00:51:50.154Z,21.56
2018-06-08T00:52:50.032Z,21.52
2018-06-08T00:53:50.083Z,21.52
2018-06-08T00:54:50.112Z,21.51
2018-06-08T00:55:50.421Z,21.5
2018-06-08T00:56:50.158Z,21.5
2018-06-08T00:57:50.013Z,21.5
2018-06-08T00:58:50.101Z,21.5
2018-06-08T00:59:50.103Z,21.49
2018-06-08T01:00:50.131Z,21.45
2018-06-08T01:01:50.091Z,21.46
2018-06-08T01:02:50.111Z,21.47
2018-06-08T01:03:50.081Z,21.45
2018-06-08T01:04:50.164Z,21.44
2018-06-08T01:05:50.056Z,21.44
2018-06-08T01:06:49.999Z,21.42
2018-06-08T01:07:50.204Z,21.42
2018-06-08T01:08:50.211Z,21.42
2018-06-08T01:09:50.104Z,21.42
2018-06-08T01:10:50.046Z,21.44
2018-06-08T01:11:50.098Z,21.44
2018-06-08T01:12:50.091Z,21.44
2018-06-08T01:13:50.058Z,21.41
2018-06-08T01:14:50.123Z,21.42
2018-06-08T01:15:50.205Z,21.39
2018-06-08T01:16:50.170Z,21.4
2018-06-08T01:17:50.083Z,21.37
2018-06-08T01:18:50.044Z,21.38
2018-06-08T01:19:50.257Z,21.38
2018-06-08T01:20:49.985Z,21.36
2018-06-08T01:21:50.081Z,21.32
2018-06-08T01:22:50.195Z,21.32
2018-06-08T01:23:50.080Z,21.31
2018-06-08T01:24:50.078Z,21.31
2018-06-08T01:25:50.194Z,21.31
2018-06-08T01:26:50.084Z,21.31
2018-06-08T01:27:50.098Z,21.31
2018-06-08T01:28:50.091Z,21.3
2018-06-08T01:29:50.111Z,21.27
2018-06-08T01:30:50.129Z,21.27
2018-06-08T01:31:50.063Z,21.26
2018-06-08T01:32:50.093Z,21.24
2018-06-08T01:33:50.051Z,21.25
2018-06-08T01:34:50.020Z,21.23
2018-06-08T01:35:50.223Z,21.23
2018-06-08T01:36:50.148Z,21.22
2018-06-08T01:37:50.044Z,21.22
2018-06-08T01:38:50.051Z,21.21
2018-06-08T01:39:50.011Z,21.18
2018-06-08T01:40:49.997Z,21.17
2018-06-08T01:41:50.011Z,21.16
2018-06-08T01:42:50.076Z,21.16
2018-06-08T01:43:50.084Z,21.16
2018-06-08T01:44:50.012Z,21.14
2018-06-08T01:45:49.925Z,21.15
2018-06-08T01:46:50.052Z,21.17
2018-06-08T01:47:50.068Z,21.18
2018-06-08T01:48:50.051Z,21.18
2018-06-08T01:49:49.704Z,21.21
2018-06-08T01:50:49.935Z,21.2
2018-06-08T01:51:49.910Z,21.21
2018-06-08T01:52:49.941Z,21.23
2018-06-08T01:53:50.026Z,21.22
2018-06-08T01:54:49.961Z,21.23
2018-06-08T01:55:49.900Z,21.23
2018-06-08T01:56:49.890Z,21.21
2018-06-08T01:57:49.901Z,21.19
2018-06-08T01:58:50.097Z,21.19
2018-06-08T01:59:49.908Z,21.18
2018-06-08T02:00:50.309Z,21.2
2018-06-08T02:01:49.961Z,21.2
2018-06-08T02:02:49.989Z,21.2
2018-06-08T02:03:50.320Z,21.19
2018-06-08T02:04:49.940Z,21.2
2018-06-08T02:05:49.977Z,21.21
2018-06-08T02:06:50.350Z,21.21
2018-06-08T02:07:49.935Z,21.2
2018-06-08T02:08:49.916Z,21.23
2018-06-08T02:09:49.919Z,21.19
2018-06-08T02:10:50.349Z,21.21
2018-06-08T02:11:49.956Z,21.19
2018-06-08T02:12:50.197Z,21.2
2018-06-08T02:13:49.919Z,21.19
2018-06-08T02:14:49.993Z,21.19
2018-06-08T02:15:49.908Z,21.19
2018-06-08T02:16:49.703Z,21.17
2018-06-08T02:17:49.893Z,21.14
2018-06-08T02:18:49.908Z,21.13
2018-06-08T02:19:49.969Z,21.13
2018-06-08T02:20:50.010Z,21.12
2018-06-08T02:21:49.934Z,21.11
2018-06-08T02:22:50.260Z,21.1
2018-06-08T02:23:49.897Z,21.08
2018-06-08T02:24:49.978Z,21.09
2018-06-08T02:25:50.022Z,21.11
2018-06-08T02:26:49.903Z,21.1
2018-06-08T02:27:49.927Z,21.07
2018-06-08T02:28:50.224Z,21.07
2018-06-08T02:29:49.929Z,21.06
2018-06-08T02:30:49.966Z,21.04
2018-06-08T02:31:49.908Z,21.01
2018-06-08T02:32:49.961Z,20.99
2018-06-08T02:33:50.079Z,20.96
2018-06-08T02:34:49.937Z,20.96
2018-06-08T02:35:49.987Z,20.97
2018-06-08T02:36:49.892Z,20.95
2018-06-08T02:37:50.245Z,20.98
2018-06-08T02:38:49.929Z,20.95
2018-06-08T02:39:49.933Z,20.98
2018-06-08T02:40:50.283Z,20.98
2018-06-08T02:41:50.005Z,20.98
2018-06-08T02:42:49.957Z,20.98
2018-06-08T02:43:50.076Z,20.98
2018-06-08T02:44:49.569Z,20.94
2018-06-08T02:45:49.952Z,20.94
2018-06-08T02:46:49.979Z,20.91
2018-06-08T02:47:49.983Z,20.91
2018-06-08T02:48:50.863Z,20.91
2018-06-08T02:49:49.260Z,20.89
2018-06-08T02:50:49.284Z,20.88
2018-06-08T02:51:49.284Z,20.88
2018-06-08T02:52:49.272Z,20.89
2018-06-08T02:53:49.274Z,20.9
2018-06-08T02:54:49.296Z,20.89
2018-06-08T02:55:49.244Z,20.89
2018-06-08T02:56:49.287Z,20.89
2018-06-08T02:57:49.260Z,20.89
2018-06-08T02:58:49.304Z,20.86
2018-06-08T02:59:49.279Z,20.84
2018-06-08T03:00:49.250Z,20.81
2018-06-08T03:01:49.244Z,20.79
2018-06-08T03:02:49.296Z,20.8
2018-06-08T03:03:49.257Z,20.77
2018-06-08T03:04:49.262Z,20.78
2018-06-08T03:05:49.290Z,20.75
2018-06-08T03:06:49.320Z,20.74
2018-06-08T03:07:49.267Z,20.69
2018-06-08T03:08:49.326Z,20.7
2018-06-08T03:09:49.304Z,20.7
2018-06-08T03:10:49.327Z,20.7
2018-06-08T03:11:49.276Z,20.7
2018-06-08T03:12:49.546Z,20.71
2018-06-08T03:13:49.252Z,20.7
2018-06-08T03:14:49.258Z,20.7
2018-06-08T03:15:49.277Z,20.69
2018-06-08T03:16:49.273Z,20.67
2018-06-08T03:17:49.350Z,20.67
2018-06-08T03:18:49.288Z,20.66
2018-06-08T03:19:49.273Z,20.65
2018-06-08T03:20:49.288Z,20.67
2018-06-08T03:21:49.348Z,20.68
2018-06-08T03:22:49.269Z,20.66
2018-06-08T03:23:49.293Z,20.65
2018-06-08T03:24:49.421Z,20.63
2018-06-08T03:25:49.254Z,20.63
2018-06-08T03:26:49.266Z,20.63
2018-06-08T03:27:49.316Z,20.62
2018-06-08T03:28:49.396Z,20.62
2018-06-08T03:29:49.249Z,20.65
2018-06-08T03:30:49.300Z,20.65
2018-06-08T03:31:49.254Z,20.63
2018-06-08T03:32:49.205Z,20.63
2018-06-08T03:33:49.255Z,20.61
2018-06-08T03:34:49.310Z,20.58
2018-06-08T03:35:49.244Z,20.56
2018-06-08T03:36:49.238Z,20.56
2018-06-08T03:37:49.255Z,20.53
2018-06-08T03:38:49.246Z,20.5
2018-06-08T03:39:49.366Z,20.47
2018-06-08T03:40:49.223Z,20.46
2018-06-08T03:41:49.226Z,20.46
2018-06-08T03:42:49.355Z,20.42
2018-06-08T03:43:49.382Z,20.41
2018-06-08T03:44:49.264Z,20.4
2018-06-08T03:45:49.272Z,20.39
2018-06-08T03:46:49.234Z,20.4
2018-06-08T03:47:49.421Z,20.36
2018-06-08T03:48:49.231Z,20.36
2018-06-08T03:49:49.274Z,20.36
2018-06-08T03:50:49.249Z,20.37
2018-06-08T03:51:49.268Z,20.36
2018-06-08T03:52:49.348Z,20.35
2018-06-08T03:53:49.202Z,20.33
2018-06-08T03:54:49.368Z,20.3
2018-06-08T03:55:49.280Z,20.28
2018-06-08T03:56:49.377Z,20.26
2018-06-08T03:57:49.214Z,20.23
2018-06-08T03:58:49.215Z,20.21
2018-06-08T03:59:49.276Z,20.21
2018-06-08T04:00:49.235Z,20.18
2018-06-08T04:01:49.244Z,20.17
2018-06-08T04:02:49.210Z,20.17
2018-06-08T04:03:49.309Z,20.15
2018-06-08T04:04:49.208Z,20.11
2018-06-08T04:05:49.232Z,20.11
2018-06-08T04:06:49.229Z,20.11
2018-06-08T04:07:49.238Z,20.1
2018-06-08T04:08:49.212Z,20.09
2018-06-08T04:09:49.253Z,20.06
2018-06-08T04:10:49.225Z,20.09
2018-06-08T04:11:49.214Z,20.1
2018-06-08T04:12:49.224Z,20.11
2018-06-08T04:13:49.217Z,20.1
2018-06-08T04:14:49.225Z,20.06
2018-06-08T04:15:49.245Z,20.06
2018-06-08T04:16:49.226Z,20.1
2018-06-08T04:17:49.241Z,20.1
2018-06-08T04:18:49.245Z,20.1
2018-06-08T04:19:49.211Z,20.11
2018-06-08T04:20:49.214Z,20.11
2018-06-08T04:21:49.221Z,20.11
2018-06-08T04:22:49.351Z,20.09
2018-06-08T04:23:49.257Z,20.08
2018-06-08T04:24:49.213Z,20.1
2018-06-08T04:25:50.758Z,20.08
2018-06-08T04:26:49.315Z,20.1
2018-06-08T04:27:49.263Z,20.1
2018-06-08T04:28:49.251Z,20.1
2018-06-08T04:29:49.208Z,20.09
2018-06-08T04:30:49.225Z,20.08
2018-06-08T04:31:49.209Z,20.1
2018-06-08T04:32:50.817Z,20.1
2018-06-08T04:33:49.255Z,20.1
2018-06-08T04:34:49.438Z,20.07
2018-06-08T04:35:49.314Z,20.06
2018-06-08T04:36:49.284Z,20.05
2018-06-08T04:37:49.482Z,20.05
2018-06-08T04:38:49.235Z,20.05
2018-06-08T04:39:49.272Z,20.05
2018-06-08T04:40:49.289Z,20.04
2018-06-08T04:41:49.296Z,20
2018-06-08T04:42:49.234Z,20.01
2018-06-08T04:43:49.233Z,19.99
2018-06-08T04:44:49.253Z,20
2018-06-08T04:45:49.328Z,20.01
2018-06-08T04:46:49.300Z,19.98
2018-06-08T04:47:49.456Z,20
2018-06-08T04:48:49.238Z,20
2018-06-08T04:49:49.211Z,19.97
2018-06-08T04:50:49.381Z,19.96
2018-06-08T04:51:52.141Z,19.97
2018-06-08T04:52:49.239Z,19.95
2018-06-08T04:53:49.216Z,19.98
2018-06-08T04:54:49.379Z,19.98
2018-06-08T04:55:49.313Z,19.97
2018-06-08T04:56:49.300Z,19.96
2018-06-08T04:57:49.235Z,19.95
2018-06-08T04:58:49.255Z,19.95
2018-06-08T04:59:49.248Z,19.94
2018-06-08T05:00:49.214Z,19.94
2018-06-08T05:01:49.211Z,19.94
2018-06-08T05:02:49.221Z,19.95
2018-06-08T05:03:49.251Z,19.96
2018-06-08T05:04:49.221Z,19.97
2018-06-08T05:05:49.239Z,20
2018-06-08T05:06:49.240Z,20
2018-06-08T05:07:49.206Z,19.98
2018-06-08T05:08:49.237Z,19.99
2018-06-08T05:09:49.694Z,20
2018-06-08T05:10:49.204Z,20.01
2018-06-08T05:11:49.301Z,20.01
2018-06-08T05:12:49.200Z,20.05
2018-06-08T05:13:49.238Z,20.04
2018-06-08T05:14:49.210Z,20.07
2018-06-08T05:15:50.989Z,20.08
2018-06-08T05:16:49.199Z,20.14
2018-06-08T05:17:49.183Z,20.13
2018-06-08T05:18:49.185Z,20.14
2018-06-08T05:19:49.272Z,20.17
2018-06-08T05:20:49.217Z,20.19
2018-06-08T05:21:49.218Z,20.2
2018-06-08T05:22:49.255Z,20.23
2018-06-08T05:23:49.237Z,20.22
2018-06-08T05:24:49.245Z,20.22
2018-06-08T05:25:49.230Z,20.23
2018-06-08T05:26:49.221Z,20.2
2018-06-08T05:27:49.207Z,20.22
2018-06-08T05:28:49.230Z,20.23
2018-06-08T05:29:49.234Z,20.21
2018-06-08T05:30:49.178Z,20.25
2018-06-08T05:31:49.620Z,20.28
2018-06-08T05:32:49.306Z,20.28
2018-06-08T05:33:49.208Z,20.3
2018-06-08T05:34:49.314Z,20.25
2018-06-08T05:35:49.228Z,20.28
2018-06-08T05:36:49.271Z,20.25
2018-06-08T05:37:49.250Z,20.28
2018-06-08T05:38:49.201Z,20.26
2018-06-08T05:39:49.323Z,20.27
2018-06-08T05:40:49.218Z,20.29
2018-06-08T05:41:49.270Z,20.3
2018-06-08T05:42:49.245Z,20.31
2018-06-08T05:43:49.295Z,20.34
2018-06-08T05:44:49.192Z,20.34
2018-06-08T05:45:49.214Z,20.35
2018-06-08T05:46:49.202Z,20.37
2018-06-08T05:47:49.236Z,20.35
2018-06-08T05:48:49.293Z,20.35
2018-06-08T05:49:49.225Z,20.37
2018-06-08T05:50:49.224Z,20.37
2018-06-08T05:51:49.213Z,20.41
2018-06-08T05:52:49.229Z,20.41
2018-06-08T05:53:49.237Z,20.41
2018-06-08T05:54:49.271Z,20.43
2018-06-08T05:55:49.225Z,20.44
2018-06-08T05:56:49.224Z,20.46
2018-06-08T05:57:49.224Z,20.45
2018-06-08T05:58:49.270Z,20.49
2018-06-08T05:59:49.264Z,20.48
2018-06-08T06:00:49.211Z,20.49
2018-06-08T06:01:49.222Z,20.51
2018-06-08T06:02:49.220Z,20.52
2018-06-08T06:03:49.232Z,20.51
2018-06-08T06:04:49.193Z,20.55
2018-06-08T06:05:49.220Z,20.56
2018-06-08T06:06:49.226Z,20.59
2018-06-08T06:07:49.205Z,20.61
2018-06-08T06:08:49.469Z,20.61
2018-06-08T06:09:49.259Z,20.61
2018-06-08T06:10:49.407Z,20.63
2018-06-08T06:11:49.274Z,20.64
2018-06-08T06:12:49.367Z,20.68
2018-06-08T06:13:49.270Z,20.67
2018-06-08T06:14:49.371Z,20.68
2018-06-08T06:15:49.204Z,20.63
2018-06-08T06:16:49.260Z,20.53
2018-06-08T06:17:49.222Z,20.55
2018-06-08T06:18:49.197Z,20.59
2018-06-08T06:19:49.226Z,20.63
2018-06-08T06:20:49.647Z,20.66
2018-06-08T06:21:49.227Z,20.67
2018-06-08T06:22:49.244Z,20.69
2018-06-08T06:23:49.214Z,20.7
2018-06-08T06:24:49.281Z,20.73
2018-06-08T06:25:49.203Z,20.67
2018-06-08T06:26:49.225Z,20.61
2018-06-08T06:27:49.206Z,20.51
2018-06-08T06:28:49.179Z,20.53
2018-06-08T06:29:49.185Z,20.59
2018-06-08T06:30:49.310Z,20.62
2018-06-08T06:31:49.202Z,20.62
2018-06-08T06:32:49.179Z,20.68
2018-06-08T06:33:49.183Z,20.68
2018-06-08T06:34:49.186Z,20.73
2018-06-08T06:35:49.187Z,20.75
2018-06-08T06:36:49.214Z,20.8
2018-06-08T06:37:49.190Z,20.8
2018-06-08T06:38:49.173Z,20.82
2018-06-08T06:39:49.205Z,20.86
2018-06-08T06:40:49.181Z,20.89
2018-06-08T06:41:49.183Z,20.94
2018-06-08T06:42:49.172Z,20.94
2018-06-08T06:43:49.213Z,20.98
2018-06-08T06:44:49.595Z,21
2018-06-08T06:45:49.162Z,20.99
2018-06-08T06:46:49.209Z,20.91
2018-06-08T06:47:49.356Z,20.9
2018-06-08T06:48:49.172Z,20.96
2018-06-08T06:49:49.150Z,20.97
2018-06-08T06:50:49.157Z,21.03
2018-06-08T06:51:49.220Z,21.07
2018-06-08T06:52:50.564Z,21.12
2018-06-08T06:53:49.197Z,21.13
2018-06-08T06:54:49.190Z,21.15
2018-06-08T06:55:49.180Z,21.17
2018-06-08T06:56:49.235Z,21.18
2018-06-08T06:57:49.185Z,21.21
2018-06-08T06:58:49.491Z,21.23
2018-06-08T06:59:49.233Z,21.24
2018-06-08T07:00:49.172Z,21.25
2018-06-08T07:01:49.175Z,21.23
2018-06-08T07:02:49.180Z,21.24
2018-06-08T07:03:49.149Z,21.27
2018-06-08T07:04:49.206Z,21.29
2018-06-08T07:05:49.231Z,21.29
2018-06-08T07:06:49.200Z,21.31
2018-06-08T07:07:49.219Z,21.25
2018-06-08T07:08:49.178Z,21.21
2018-06-08T07:09:49.172Z,21.15
2018-06-08T07:10:49.182Z,21.17
2018-06-08T07:11:49.275Z,21.17
2018-06-08T07:12:49.723Z,21.16
2018-06-08T07:13:49.201Z,21.2
2018-06-08T07:14:49.220Z,21.19
2018-06-08T07:15:49.200Z,21.19
2018-06-08T07:16:49.397Z,21.23
2018-06-08T07:17:49.461Z,21.24
2018-06-08T07:18:50.078Z,21.26
2018-06-08T07:19:49.190Z,21.29
2018-06-08T07:20:49.180Z,21.28
2018-06-08T07:21:49.413Z,21.3
2018-06-08T07:22:49.188Z,21.37
2018-06-08T07:23:49.182Z,21.4
2018-06-08T07:24:49.535Z,21.41
2018-06-08T07:25:49.180Z,21.45
2018-06-08T07:26:49.187Z,21.42
2018-06-08T07:27:49.257Z,21.44
2018-06-08T07:28:49.219Z,21.42
2018-06-08T07:29:49.191Z,21.44
2018-06-08T07:30:49.229Z,21.49
2018-06-08T07:31:51.858Z,21.52
2018-06-08T07:32:49.203Z,21.58
2018-06-08T07:33:49.173Z,21.56
2018-06-08T07:34:49.178Z,21.54
2018-06-08T07:35:49.226Z,21.6
2018-06-08T07:36:49.213Z,21.62
2018-06-08T07:37:49.185Z,21.6
2018-06-08T07:38:49.189Z,21.61
2018-06-08T07:39:49.426Z,21.62
2018-06-08T07:40:49.184Z,21.6
2018-06-08T07:41:49.180Z,21.61
2018-06-08T07:42:49.170Z,21.61
2018-06-08T07:43:49.210Z,21.67
2018-06-08T07:44:49.187Z,21.69
2018-06-08T07:45:49.203Z,21.72
2018-06-08T07:46:49.889Z,21.75
2018-06-08T07:47:49.160Z,21.77
2018-06-08T07:48:49.192Z,21.77
2018-06-08T07:49:49.174Z,21.8
2018-06-08T07:50:49.163Z,21.79
2018-06-08T07:51:49.202Z,21.78
2018-06-08T07:52:49.181Z,21.8
2018-06-08T07:53:49.648Z,21.8
2018-06-08T07:54:49.194Z,21.82
2018-06-08T07:55:49.393Z,21.79
2018-06-08T07:56:49.172Z,21.79
2018-06-08T07:57:49.184Z,21.79
2018-06-08T07:58:49.149Z,21.79
2018-06-08T07:59:49.183Z,21.8
2018-06-08T08:00:49.204Z,21.81
2018-06-08T08:01:49.199Z,21.82
2018-06-08T08:02:49.172Z,21.85
2018-06-08T08:03:49.257Z,21.86
2018-06-08T08:04:49.162Z,21.86
2018-06-08T08:05:49.167Z,21.87
2018-06-08T08:06:49.190Z,21.89
2018-06-08T08:07:49.156Z,21.91
2018-06-08T08:08:49.183Z,21.96
2018-06-08T08:09:49.179Z,22
2018-06-08T08:10:49.131Z,22.05
2018-06-08T08:11:49.196Z,22.11
2018-06-08T08:12:49.205Z,22.13
2018-06-08T08:13:49.158Z,22.17
2018-06-08T08:14:49.187Z,22.23
2018-06-08T08:15:49.154Z,22.25
2018-06-08T08:16:49.548Z,22.32
2018-06-08T08:17:49.178Z,22.37
2018-06-08T08:18:49.272Z,22.4
2018-06-08T08:19:49.312Z,22.45
2018-06-08T08:20:49.159Z,22.45
2018-06-08T08:21:49.143Z,22.48
2018-06-08T08:22:49.171Z,22.49
2018-06-08T08:23:49.190Z,22.48
2018-06-08T08:24:49.159Z,22.43
2018-06-08T08:25:49.961Z,22.42
2018-06-08T08:26:49.247Z,22.41
2018-06-08T08:27:49.186Z,22.43
2018-06-08T08:28:49.204Z,22.46
2018-06-08T08:29:49.126Z,22.47
2018-06-08T08:30:49.220Z,22.48
2018-06-08T08:31:49.132Z,22.49
2018-06-08T08:32:49.219Z,22.5
2018-06-08T08:33:49.147Z,22.47
2018-06-08T08:34:49.162Z,22.41
2018-06-08T08:35:49.265Z,22.39
2018-06-08T08:36:49.193Z,22.34
2018-06-08T08:37:49.164Z,22.25
2018-06-08T08:38:49.248Z,22.16
2018-06-08T08:39:49.242Z,22.18
2018-06-08T08:40:49.325Z,22.14
2018-06-08T08:41:49.293Z,22.1
2018-06-08T08:42:49.344Z,22.12
2018-06-08T08:43:49.135Z,22.16
2018-06-08T08:44:49.125Z,22.16
2018-06-08T08:45:49.151Z,22.15
2018-06-08T08:46:49.154Z,22.15
2018-06-08T08:47:49.131Z,22.18
2018-06-08T08:48:49.187Z,22.2
2018-06-08T08:49:49.134Z,22.21
2018-06-08T08:50:49.184Z,22.22
2018-06-08T08:51:49.149Z,22.17
2018-06-08T08:52:49.140Z,22.16
2018-06-08T08:53:49.166Z,22.15
2018-06-08T08:54:49.136Z,22.18
2018-06-08T08:55:49.132Z,22.21
2018-06-08T08:56:49.653Z,22.21
2018-06-08T08:57:49.176Z,22.23
2018-06-08T08:58:49.118Z,22.23
2018-06-08T08:59:49.170Z,22.27
2018-06-08T09:00:49.124Z,22.32
2018-06-08T09:01:49.161Z,22.35
2018-06-08T09:02:49.176Z,22.44
2018-06-08T09:03:49.611Z,22.49
2018-06-08T09:04:49.127Z,22.54
2018-06-08T09:05:49.172Z,22.55
2018-06-08T09:06:49.160Z,22.58
2018-06-08T09:07:49.123Z,22.62
2018-06-08T09:08:49.145Z,22.71
2018-06-08T09:09:49.187Z,22.7
2018-06-08T09:10:49.141Z,22.73
2018-06-08T09:11:49.140Z,22.77
2018-06-08T09:12:49.146Z,22.83
2018-06-08T09:13:49.145Z,22.86
2018-06-08T09:14:49.178Z,22.94
2018-06-08T09:15:49.237Z,22.99
2018-06-08T09:16:49.139Z,23.04
2018-06-08T09:17:49.146Z,23.02
2018-06-08T09:18:49.160Z,22.96
2018-06-08T09:19:49.209Z,22.98
2018-06-08T09:20:49.348Z,22.97
2018-06-08T09:21:49.360Z,22.99
2018-06-08T09:22:49.314Z,22.97
2018-06-08T09:23:49.252Z,22.94
2018-06-08T09:24:49.235Z,22.95
2018-06-08T09:25:49.273Z,22.99
2018-06-08T09:26:49.307Z,23.04
2018-06-08T09:27:49.208Z,23.12
2018-06-08T09:28:49.121Z,23.28
2018-06-08T09:29:49.197Z,23.28
2018-06-08T09:30:49.118Z,23.32
2018-06-08T09:31:49.136Z,23.33
2018-06-08T09:32:49.114Z,23.35
2018-06-08T09:33:49.327Z,23.29
2018-06-08T09:34:49.284Z,23.28
2018-06-08T09:35:49.154Z,23.25
2018-06-08T09:36:49.245Z,23.26
2018-06-08T09:37:49.141Z,23.35
2018-06-08T09:38:49.137Z,23.19
2018-06-08T09:39:49.151Z,23.24
2018-06-08T09:40:49.146Z,23.26
2018-06-08T09:41:49.181Z,23.28
2018-06-08T09:42:49.109Z,23.3
2018-06-08T09:43:49.228Z,23.31
2018-06-08T09:44:49.166Z,23.33
2018-06-08T09:45:49.147Z,23.34
2018-06-08T09:46:49.144Z,23.35
2018-06-08T09:47:49.220Z,23.38
2018-06-08T09:48:49.196Z,23.41
2018-06-08T09:49:49.153Z,23.46
2018-06-08T09:50:49.187Z,23.5
2018-06-08T09:51:49.134Z,23.53
2018-06-08T09:52:49.103Z,23.47
2018-06-08T09:53:49.150Z,23.51
2018-06-08T09:54:49.542Z,23.53
2018-06-08T09:55:49.163Z,23.53
2018-06-08T09:56:49.120Z,23.56
2018-06-08T09:57:49.129Z,23.63
2018-06-08T09:58:49.147Z,23.68
2018-06-08T09:59:49.123Z,23.73
2018-06-08T10:00:49.160Z,23.76
2018-06-08T10:01:49.204Z,23.78
2018-06-08T10:02:49.131Z,23.78
2018-06-08T10:03:49.175Z,23.78
2018-06-08T10:04:49.143Z,23.79
2018-06-08T10:05:49.135Z,23.82
2018-06-08T10:06:49.144Z,23.85
2018-06-08T10:07:49.141Z,23.86
2018-06-08T10:08:49.183Z,23.87
2018-06-08T10:09:49.155Z,23.81
2018-06-08T10:10:49.200Z,23.76
2018-06-08T10:11:49.235Z,23.76
2018-06-08T10:12:49.288Z,23.75
2018-06-08T10:13:49.346Z,23.67
2018-06-08T10:14:49.118Z,23.6
2018-06-08T10:15:49.128Z,23.62
2018-06-08T10:16:49.170Z,23.63
2018-06-08T10:17:49.155Z,23.66
2018-06-08T10:18:49.123Z,23.69
2018-06-08T10:19:49.163Z,23.75
2018-06-08T10:20:49.107Z,23.79
2018-06-08T10:21:49.181Z,23.83
2018-06-08T10:22:49.131Z,23.85
2018-06-08T10:23:49.103Z,23.88
2018-06-08T10:24:49.111Z,23.91
2018-06-08T10:25:49.118Z,23.96
2018-06-08T10:26:49.132Z,24
2018-06-08T10:27:49.139Z,24.01
2018-06-08T10:28:49.133Z,24.03
2018-06-08T10:29:49.167Z,24.04
2018-06-08T10:30:49.414Z,24.05
2018-06-08T10:31:49.262Z,24.08
2018-06-08T10:32:49.151Z,24.09
2018-06-08T10:33:49.220Z,24.1
2018-06-08T10:34:49.188Z,24.13
2018-06-08T10:35:49.108Z,24.13
2018-06-08T10:36:49.151Z,24.14
2018-06-08T10:37:49.118Z,24.14
2018-06-08T10:38:49.308Z,24.12
2018-06-08T10:39:49.168Z,24.07
2018-06-08T10:40:49.304Z,24.06
2018-06-08T10:41:49.151Z,24.08
2018-06-08T10:42:49.179Z,24.09
2018-06-08T10:43:49.140Z,24.13
2018-06-08T10:44:49.153Z,24.16
2018-06-08T10:45:49.149Z,24.18
2018-06-08T10:46:49.123Z,24.13
2018-06-08T10:47:49.143Z,24.14
2018-06-08T10:48:49.276Z,24.13
2018-06-08T10:49:49.165Z,24.13
2018-06-08T10:50:49.169Z,24.14
2018-06-08T10:51:49.191Z,24.25
2018-06-08T10:52:49.214Z,24.34
2018-06-08T10:53:49.189Z,24.39
2018-06-08T10:54:49.114Z,24.45
2018-06-08T10:55:49.205Z,24.5
2018-06-08T10:56:49.189Z,24.57
2018-06-08T10:57:49.215Z,24.62
2018-06-08T10:58:49.216Z,24.72
2018-06-08T10:59:59.042Z,24.84
2018-06-08T11:00:49.148Z,24.92
2018-06-08T11:01:49.151Z,24.96
2018-06-08T11:02:49.139Z,25
2018-06-08T11:03:49.196Z,24.95
2018-06-08T11:04:49.155Z,24.97
2018-06-08T11:05:49.170Z,25.05
2018-06-08T11:06:49.112Z,25.03
2018-06-08T11:07:49.150Z,25.1
2018-06-08T11:08:49.110Z,25.17
2018-06-08T11:09:49.154Z,25.22
2018-06-08T11:10:49.201Z,25.18
2018-06-08T11:11:49.141Z,25.22
2018-06-08T11:12:49.186Z,25.26
2018-06-08T11:13:49.153Z,25.29
2018-06-08T11:14:49.106Z,25.31
2018-06-08T11:15:49.134Z,25.35
2018-06-08T11:16:49.078Z,25.45
2018-06-08T11:17:49.083Z,25.47
2018-06-08T11:18:49.187Z,25.47
2018-06-08T11:19:49.572Z,25.5
2018-06-08T11:20:49.177Z,25.47
2018-06-08T11:21:49.125Z,25.39
2018-06-08T11:22:49.132Z,25.3
2018-06-08T11:23:49.136Z,25.24
2018-06-08T11:24:49.159Z,25.3
2018-06-08T11:25:49.152Z,25.35
2018-06-08T11:26:49.154Z,25.41
2018-06-08T11:27:49.193Z,25.53
2018-06-08T11:28:49.206Z,25.61
2018-06-08T11:29:49.129Z,25.69
2018-06-08T11:30:49.198Z,25.73
2018-06-08T11:31:49.130Z,25.67
2018-06-08T11:32:49.150Z,25.65
2018-06-08T11:33:49.207Z,25.67
2018-06-08T11:34:49.088Z,25.68
2018-06-08T11:35:49.164Z,25.71
2018-06-08T11:36:49.151Z,25.69
2018-06-08T11:37:49.159Z,25.62
2018-06-08T11:38:49.138Z,25.64
2018-06-08T11:39:49.124Z,25.62
2018-06-08T11:40:49.104Z,25.68
2018-06-08T11:41:49.100Z,25.79
2018-06-08T11:42:49.145Z,25.93
2018-06-08T11:43:49.132Z,25.9
2018-06-08T11:44:49.079Z,25.97
2018-06-08T11:45:49.593Z,25.99
2018-06-08T11:46:49.233Z,26.02
2018-06-08T11:47:49.157Z,26.08
2018-06-08T11:48:49.096Z,26.16
2018-06-08T11:49:49.113Z,26.21
2018-06-08T11:50:49.148Z,26.25
2018-06-08T11:51:49.116Z,26.29
2018-06-08T11:52:49.180Z,26.35
2018-06-08T11:53:49.119Z,26.4
2018-06-08T11:54:49.143Z,26.47
2018-06-08T11:55:49.112Z,26.54
2018-06-08T11:56:49.099Z,26.59
2018-06-08T11:57:49.131Z,26.62
2018-06-08T11:58:49.164Z,26.63
2018-06-08T11:59:49.096Z,26.64
2018-06-08T12:00:49.157Z,26.59
2018-06-08T12:01:49.791Z,26.66
2018-06-08T12:02:49.125Z,26.68
2018-06-08T12:03:49.146Z,26.65
2018-06-08T12:04:49.106Z,26.61
2018-06-08T12:05:49.111Z,26.64
2018-06-08T12:06:49.239Z,26.58
2018-06-08T12:07:49.515Z,26.53
2018-06-08T12:08:49.159Z,26.52
2018-06-08T12:09:49.096Z,26.46
2018-06-08T12:10:49.156Z,26.45
2018-06-08T12:11:49.104Z,26.41
2018-06-08T12:12:49.150Z,26.48
2018-06-08T12:13:49.122Z,26.46
2018-06-08T12:14:49.139Z,26.53
2018-06-08T12:15:49.151Z,26.58
2018-06-08T12:16:49.262Z,26.57
2018-06-08T12:17:49.188Z,26.66
2018-06-08T12:18:49.266Z,26.63
2018-06-08T12:19:49.120Z,26.59
2018-06-08T12:20:49.253Z,26.64
2018-06-08T12:21:49.308Z,26.64
2018-06-08T12:22:49.205Z,26.6
2018-06-08T12:23:49.190Z,26.67
2018-06-08T12:24:49.105Z,26.66
2018-06-08T12:25:49.123Z,26.79
2018-06-08T12:26:49.123Z,26.76
2018-06-08T12:27:49.081Z,26.9
2018-06-08T12:28:49.098Z,26.8
2018-06-08T12:29:49.151Z,26.8
2018-06-08T12:30:49.884Z,26.82
2018-06-08T12:31:49.160Z,26.83
2018-06-08T12:32:49.078Z,26.9
2018-06-08T12:33:49.314Z,26.92
2018-06-08T12:34:49.084Z,26.99
2018-06-08T12:35:49.123Z,27.04
2018-06-08T12:36:49.092Z,27.02
2018-06-08T12:37:49.195Z,26.96
2018-06-08T12:38:49.110Z,27.05
2018-06-08T12:39:49.090Z,27.06
2018-06-08T12:40:49.205Z,27.12
2018-06-08T12:41:49.118Z,27.12
2018-06-08T12:42:49.137Z,27.21
2018-06-08T12:43:49.182Z,27.25
2018-06-08T12:44:49.084Z,27.26
2018-06-08T12:45:49.093Z,27.27
2018-06-08T12:46:49.093Z,27.34
2018-06-08T12:47:49.090Z,27.4
2018-06-08T12:48:49.075Z,27.47
2018-06-08T12:49:49.166Z,27.5
2018-06-08T12:50:49.139Z,27.5
2018-06-08T12:51:49.119Z,27.44
2018-06-08T12:52:49.138Z,27.49
2018-06-08T12:53:49.114Z,27.46
2018-06-08T12:54:49.168Z,27.43
2018-06-08T12:55:49.226Z,27.46
2018-06-08T12:56:49.132Z,27.44